createdAt,value
2023-03-12T00:00:33.783Z,68.85
2023-03-12T00:07:27.958Z,68.77
2023-03-12T00:14:14.806Z,69.54
2023-03-12T00:21:02.916Z,69.99
2023-03-12T00:32:39.454Z,70.01
2023-03-12T00:39:33.591Z,70.29
2023-03-12T00:46:17.095Z,70.90
2023-03-12T00:53:14.058Z,70.67
2023-03-12T00:59:54.689Z,71.24
2023-03-12T01:06:48.680Z,71.17
2023-03-12T01:13:31.108Z,71.06
2023-03-12T01:20:24.863Z,71.18
2023-03-12T01:31:44.048Z,71.54
2023-03-12T01:38:30.526Z,72.53
2023-03-12T01:46:04.079Z,73.68
2023-03-12T01:52:54.136Z,74.53
2023-03-12T01:59:49.958Z,74.51
2023-03-12T02:06:43.942Z,74.50
2023-03-12T02:13:38.817Z,74.28
2023-03-12T02:20:33.358Z,73.92
2023-03-12T02:31:56.842Z,74.60
2023-03-12T02:38:47.453Z,74.76
2023-03-12T02:42:08.078Z,74.65
2023-03-12T02:44:43.835Z,74.78
2023-03-12T02:47:21.344Z,74.35
2023-03-12T02:49:54.009Z,74.48
2023-03-12T02:52:41.754Z,74.45
2023-03-12T02:55:16.752Z,74.82
2023-03-12T02:58:05.410Z,74.93
2023-03-12T03:01:05.652Z,74.98
2023-03-12T03:08:00.817Z,75.11
2023-03-12T03:10:32.885Z,75.35
2023-03-12T03:13:04.722Z,75.45
2023-03-12T03:15:36.779Z,75.48
2023-03-12T03:18:11.266Z,75.50
2023-03-12T03:20:45.226Z,75.76
2023-03-12T03:23:45.230Z,75.91
2023-03-12T03:26:38.357Z,76.21
2023-03-12T03:30:19.859Z,76.41
2023-03-12T03:32:51.986Z,76.59
2023-03-12T03:35:24.454Z,76.77
2023-03-12T03:38:52.026Z,76.88
2023-03-12T03:41:51.826Z,76.79
2023-03-12T03:44:50.762Z,76.78
2023-03-12T03:47:19.489Z,76.91
2023-03-12T03:50:00.812Z,76.85
2023-03-12T03:52:33.203Z,76.62
2023-03-12T03:55:20.247Z,76.55
2023-03-12T03:58:54.425Z,76.57
2023-03-12T04:01:26.211Z,76.80
2023-03-12T04:04:00.111Z,76.89
2023-03-12T04:06:54.198Z,77.13
2023-03-12T04:09:35.868Z,77.29
2023-03-12T04:13:12.453Z,77.24
2023-03-12T04:15:49.082Z,77.34
2023-03-12T04:18:26.874Z,77.37
2023-03-12T04:21:00.820Z,77.33
2023-03-12T04:23:58.293Z,77.32
2023-03-12T04:26:58.638Z,77.05
2023-03-12T04:29:56.260Z,76.80
2023-03-12T04:32:24.746Z,76.82
2023-03-12T04:35:00.991Z,76.64
2023-03-12T04:37:38.668Z,76.61
2023-03-12T04:40:22.069Z,76.81
2023-03-12T04:42:52.676Z,76.88
2023-03-12T04:45:44.276Z,76.95
2023-03-12T04:48:16.691Z,76.99
2023-03-12T04:50:55.723Z,77.04
2023-03-12T04:54:13.977Z,77.07
2023-03-12T04:57:37.022Z,77.05
2023-03-12T05:00:13.100Z,77.01
2023-03-12T05:03:01.574Z,76.90
2023-03-12T05:05:35.974Z,77.09
2023-03-12T05:08:19.864Z,77.00
2023-03-12T05:10:53.591Z,76.98
2023-03-12T05:13:28.245Z,76.92
2023-03-12T05:16:00.026Z,76.93
2023-03-12T05:18:39.758Z,76.91
2023-03-12T05:21:12.862Z,77.00
2023-03-12T05:23:47.752Z,76.88
2023-03-12T05:26:31.707Z,76.69
2023-03-12T05:29:52.363Z,76.35
2023-03-12T05:32:37.539Z,76.23
2023-03-12T05:35:07.501Z,75.99
2023-03-12T05:37:37.222Z,76.08
2023-03-12T05:40:09.470Z,75.94
2023-03-12T05:42:37.977Z,75.82
2023-03-12T05:45:11.116Z,75.36
2023-03-12T05:48:15.922Z,75.19
2023-03-12T05:50:47.736Z,75.17
2023-03-12T05:53:23.241Z,75.16
2023-03-12T05:56:04.870Z,75.16
2023-03-12T05:58:46.405Z,74.70
2023-03-12T06:01:18.347Z,74.58
2023-03-12T06:03:52.208Z,75.31
2023-03-12T06:06:38.074Z,76.27
2023-03-12T06:09:08.624Z,77.08
2023-03-12T06:11:44.806Z,76.56
2023-03-12T06:14:14.885Z,77.18
2023-03-12T06:16:44.552Z,77.44
2023-03-12T06:19:18.644Z,77.88
2023-03-12T06:21:53.428Z,77.38
2023-03-12T06:24:22.964Z,77.30
2023-03-12T06:27:09.756Z,76.49
2023-03-12T06:29:39.108Z,76.02
2023-03-12T06:32:19.312Z,74.49
2023-03-12T06:34:52.755Z,75.27
2023-03-12T06:37:22.423Z,75.01
2023-03-12T06:39:50.871Z,73.35
2023-03-12T06:42:22.825Z,72.44
2023-03-12T06:45:10.800Z,72.25
2023-03-12T06:48:04.281Z,70.94
2023-03-12T06:50:36.152Z,70.66
2023-03-12T06:54:09.420Z,70.46
2023-03-12T06:56:39.892Z,70.41
2023-03-12T07:03:22.615Z,69.16
2023-03-12T07:05:53.213Z,70.12
2023-03-12T07:08:21.840Z,70.01
2023-03-12T07:10:55.725Z,70.14
2023-03-12T07:13:30.562Z,68.74
2023-03-12T07:15:59.074Z,68.42
2023-03-12T07:18:35.474Z,68.18
2023-03-12T07:21:11.626Z,67.68
2023-03-12T07:23:41.234Z,67.53
2023-03-12T07:26:16.747Z,66.86
2023-03-12T07:28:46.307Z,66.96
2023-03-12T07:31:19.668Z,66.93
2023-03-12T07:33:54.189Z,66.51
2023-03-12T07:36:27.986Z,66.41
2023-03-12T07:38:59.689Z,66.66
2023-03-12T07:41:32.922Z,66.56
2023-03-12T07:44:03.608Z,66.04
2023-03-12T07:46:34.244Z,65.58
2023-03-12T07:49:16.190Z,65.47
2023-03-12T07:51:46.988Z,65.90
2023-03-12T08:02:45.962Z,63.46
2023-03-12T08:06:05.221Z,63.39
2023-03-12T08:08:42.650Z,63.52
2023-03-12T08:16:09.529Z,63.93
2023-03-12T08:22:40.829Z,60.54
2023-03-12T08:25:40.885Z,60.53
2023-03-12T08:29:00.380Z,60.11
2023-03-12T08:35:53.572Z,59.84
2023-03-12T08:38:31.103Z,59.21
2023-03-12T08:53:37.557Z,57.10
2023-03-12T08:56:08.824Z,55.77
2023-03-12T09:03:02.554Z,56.45
2023-03-12T09:09:57.742Z,54.85
2023-03-12T09:16:48.724Z,54.12
2023-03-12T09:23:42.720Z,50.56
2023-03-12T09:26:24.937Z,51.30
2023-03-12T09:38:16.942Z,50.71
2023-03-12T09:58:47.000Z,46.60
2023-03-12T10:23:07.888Z,44.04
2023-03-12T10:31:28.619Z,42.71
2023-03-12T10:39:50.848Z,40.60
2023-03-12T11:08:23.728Z,32.87
2023-03-12T11:15:22.135Z,33.05
2023-03-12T11:22:32.317Z,29.92
2023-03-12T11:25:32.008Z,30.47
2023-03-12T11:33:11.554Z,33.16
2023-03-12T11:41:06.277Z,30.45
2023-03-12T11:48:42.958Z,33.12
2023-03-12T11:55:57.451Z,28.18
2023-03-12T12:02:56.672Z,28.42
2023-03-12T12:10:02.726Z,30.57
2023-03-12T12:17:09.830Z,26.00
2023-03-12T12:23:58.752Z,30.90
2023-03-12T12:30:59.246Z,29.27
2023-03-12T12:38:04.109Z,28.94
2023-03-12T12:45:05.925Z,27.07
2023-03-12T12:51:57.417Z,27.29
2023-03-12T12:59:27.433Z,28.12
2023-03-12T13:06:14.978Z,28.50
2023-03-12T13:13:05.315Z,27.85
2023-03-12T13:19:55.421Z,28.42
2023-03-12T13:23:05.180Z,27.45
2023-03-12T13:29:46.049Z,25.98
2023-03-12T13:41:33.560Z,28.56
2023-03-12T13:44:31.604Z,28.27
2023-03-12T13:47:28.618Z,28.37
2023-03-12T13:54:03.010Z,25.82
2023-03-12T13:57:06.575Z,25.17
2023-03-12T14:04:06.356Z,26.08
2023-03-12T14:11:14.955Z,26.22
2023-03-12T14:18:17.213Z,25.34
2023-03-12T14:25:13.801Z,25.87
2023-03-12T14:32:17.542Z,25.61
2023-03-12T14:44:05.400Z,26.37
2023-03-12T14:51:01.270Z,25.95
2023-03-12T14:57:52.906Z,24.43
2023-03-12T15:05:21.793Z,23.60
2023-03-12T15:08:48.545Z,26.12
2023-03-12T15:15:44.729Z,27.20
2023-03-12T15:23:06.282Z,27.55
2023-03-12T15:25:41.189Z,28.02
2023-03-12T15:28:54.589Z,29.52
2023-03-12T15:31:52.272Z,28.72
2023-03-12T15:34:41.312Z,30.18
2023-03-12T15:41:45.551Z,31.31
2023-03-12T15:48:31.569Z,32.29
2023-03-12T15:51:29.562Z,32.70
2023-03-12T15:54:26.209Z,34.19
2023-03-12T15:57:24.108Z,34.51
2023-03-12T16:01:01.224Z,34.84
2023-03-12T16:07:52.368Z,35.57
2023-03-12T16:14:41.285Z,36.69
2023-03-12T16:21:29.297Z,37.63
2023-03-12T16:28:22.557Z,38.99
2023-03-12T16:31:50.784Z,37.99
2023-03-12T16:39:24.262Z,39.56
2023-03-12T16:41:54.303Z,40.19
2023-03-12T16:44:25.846Z,39.31
2023-03-12T16:51:24.952Z,41.56
2023-03-12T16:58:25.530Z,43.15
2023-03-12T17:01:00.209Z,42.96
2023-03-12T17:04:33.666Z,42.52
2023-03-12T17:07:03.380Z,44.04
2023-03-12T17:09:35.046Z,45.09
2023-03-12T17:13:01.178Z,44.01
2023-03-12T17:16:29.073Z,46.05
2023-03-12T17:20:08.079Z,44.90
2023-03-12T17:23:32.996Z,44.41
2023-03-12T17:26:31.173Z,44.04
2023-03-12T17:29:02.011Z,43.06
2023-03-12T17:32:01.433Z,42.57
2023-03-12T17:35:03.841Z,43.09
2023-03-12T17:37:58.872Z,42.54
2023-03-12T17:40:31.466Z,44.65
2023-03-12T17:43:04.075Z,45.28
2023-03-12T17:45:42.987Z,44.27
2023-03-12T17:49:01.255Z,46.13
2023-03-12T17:52:03.849Z,46.32
2023-03-12T17:54:35.958Z,47.36
2023-03-12T17:57:10.101Z,46.43
2023-03-12T17:59:41.137Z,46.33
2023-03-12T18:02:16.906Z,49.97
2023-03-12T18:04:49.366Z,49.67
2023-03-12T18:07:25.126Z,50.54
2023-03-12T18:10:06.502Z,52.29
2023-03-12T18:12:52.974Z,52.97
2023-03-12T18:15:30.281Z,52.79
2023-03-12T18:18:01.282Z,52.51
2023-03-12T18:20:38.605Z,52.86
2023-03-12T18:23:17.097Z,55.10
2023-03-12T18:26:15.602Z,55.40
2023-03-12T18:28:54.144Z,55.00
2023-03-12T18:32:14.658Z,55.84
2023-03-12T18:34:50.206Z,56.11
2023-03-12T18:37:32.754Z,57.29
2023-03-12T18:40:06.071Z,59.06
2023-03-12T18:42:37.286Z,60.07
2023-03-12T18:45:14.830Z,60.26
2023-03-12T18:47:51.728Z,60.14
2023-03-12T18:50:26.237Z,60.51
2023-03-12T18:52:58.930Z,61.08
2023-03-12T18:55:28.730Z,60.49
2023-03-12T18:58:01.072Z,59.86
2023-03-12T19:00:34.776Z,58.86
2023-03-12T19:03:22.505Z,57.78
2023-03-12T19:06:03.637Z,59.40
2023-03-12T19:08:36.089Z,60.24
2023-03-12T19:11:13.403Z,61.04
2023-03-12T19:13:50.273Z,61.68
2023-03-12T19:16:27.827Z,62.96
2023-03-12T19:19:02.116Z,63.15
2023-03-12T19:21:38.206Z,65.04
2023-03-12T19:24:16.428Z,66.34
2023-03-12T19:26:49.055Z,66.19
2023-03-12T19:29:30.116Z,65.24
2023-03-12T19:32:01.334Z,63.39
2023-03-12T19:34:32.771Z,63.44
2023-03-12T19:37:09.374Z,61.73
2023-03-12T19:39:47.726Z,61.60
2023-03-12T19:42:17.153Z,61.47
2023-03-12T19:44:54.853Z,60.47
2023-03-12T19:47:31.762Z,62.54
2023-03-12T19:50:03.314Z,62.19
2023-03-12T19:52:37.091Z,63.87
2023-03-12T19:55:07.764Z,65.58
2023-03-12T19:57:39.793Z,65.24
2023-03-12T20:00:14.261Z,66.64
2023-03-12T20:02:55.869Z,65.55
2023-03-12T20:05:26.379Z,66.12
2023-03-12T20:07:59.564Z,65.30
2023-03-12T20:10:38.627Z,64.70
2023-03-12T20:13:14.113Z,65.31
2023-03-12T20:15:48.689Z,64.31
2023-03-12T20:18:22.437Z,64.13
2023-03-12T20:20:55.214Z,65.27
2023-03-12T20:23:31.964Z,64.38
2023-03-12T20:26:02.774Z,65.00
2023-03-12T20:28:34.546Z,67.14
2023-03-12T20:31:12.873Z,67.07
2023-03-12T20:33:44.473Z,67.41
2023-03-12T20:36:16.931Z,67.53
2023-03-12T20:38:52.290Z,67.21
2023-03-12T20:41:22.859Z,67.84
2023-03-12T20:43:59.991Z,67.87
2023-03-12T20:46:30.039Z,68.60
2023-03-12T20:49:01.783Z,68.38
2023-03-12T20:51:34.525Z,68.31
2023-03-12T20:54:08.807Z,67.86
2023-03-12T20:56:44.433Z,68.03
2023-03-12T20:59:16.166Z,68.20
2023-03-12T21:01:50.778Z,67.65
2023-03-12T21:04:22.090Z,68.25
2023-03-12T21:06:53.408Z,68.26
2023-03-12T21:09:28.794Z,68.50
2023-03-12T21:11:58.941Z,69.43
2023-03-12T21:14:33.488Z,69.02
2023-03-12T21:17:07.520Z,70.32
2023-03-12T21:20:09.768Z,70.86
2023-03-12T21:22:47.084Z,70.66
2023-03-12T21:25:18.950Z,70.47
2023-03-12T21:27:53.084Z,70.11
2023-03-12T21:30:22.817Z,72.07
2023-03-12T21:32:56.305Z,71.81
2023-03-12T21:35:29.585Z,71.90
2023-03-12T21:38:28.553Z,72.04
2023-03-12T21:41:07.315Z,69.41
2023-03-12T21:44:35.172Z,71.97
2023-03-12T21:47:05.864Z,73.02
2023-03-12T21:49:44.996Z,72.76
2023-03-12T21:52:17.507Z,72.03
2023-03-12T21:54:45.968Z,71.60
2023-03-12T21:57:42.377Z,72.14
2023-03-12T22:00:18.592Z,71.61
2023-03-12T22:02:48.242Z,68.98
2023-03-12T22:05:18.679Z,69.96
2023-03-12T22:07:48.081Z,69.50
2023-03-12T22:10:19.663Z,71.30
2023-03-12T22:12:49.690Z,71.71
2023-03-12T22:15:19.099Z,71.65
2023-03-12T22:17:47.357Z,71.81
2023-03-12T22:20:16.979Z,71.09
2023-03-12T22:22:45.744Z,70.78
2023-03-12T22:25:15.053Z,71.03
2023-03-12T22:27:44.292Z,71.35
2023-03-12T22:30:16.504Z,70.35
2023-03-12T22:32:45.920Z,71.22
2023-03-12T22:35:14.290Z,69.55
2023-03-12T22:37:48.838Z,68.59
2023-03-12T22:40:17.299Z,61.92
2023-03-12T22:42:50.979Z,62.37
2023-03-12T22:45:21.081Z,63.38
2023-03-12T22:47:50.359Z,61.72
2023-03-12T22:50:18.757Z,62.00
2023-03-12T22:52:49.835Z,62.25
2023-03-12T22:55:18.330Z,62.12
2023-03-12T22:57:48.628Z,61.56
2023-03-12T23:00:23.121Z,63.64
2023-03-12T23:02:51.667Z,63.08
2023-03-12T23:05:20.200Z,61.26
2023-03-12T23:07:54.647Z,62.80
2023-03-12T23:10:22.924Z,63.43
2023-03-12T23:12:53.288Z,63.86
2023-03-12T23:15:35.130Z,63.46
2023-03-12T23:18:08.692Z,63.88
2023-03-12T23:20:40.634Z,63.10
2023-03-12T23:23:15.660Z,63.27
2023-03-12T23:25:44.120Z,62.57
2023-03-12T23:28:12.339Z,63.16
2023-03-12T23:30:42.053Z,63.28
2023-03-12T23:37:10.617Z,63.23
2023-03-12T23:39:53.438Z,63.84
2023-03-12T23:42:22.692Z,64.01
2023-03-12T23:44:51.997Z,64.80
2023-03-12T23:47:21.775Z,64.56
2023-03-12T23:49:50.095Z,66.42
2023-03-12T23:52:27.518Z,65.77
2023-03-12T23:54:55.804Z,65.47
2023-03-12T23:57:24.124Z,67.14
2023-03-12T23:59:52.404Z,69.75
